createdAt,value
2022-10-19T00:00:00.358Z,1.8
2022-10-19T00:05:00.320Z,2.5
2022-10-19T00:10:00.319Z,5.0
2022-10-19T00:15:00.302Z,3.6
2022-10-19T00:20:00.349Z,5.4
2022-10-19T00:25:00.305Z,6.1
2022-10-19T00:30:00.313Z,6.8
2022-10-19T00:35:00.316Z,10.1
2022-10-19T00:40:00.418Z,13.3
2022-10-19T00:45:00.322Z,9.0
2022-10-19T00:50:00.300Z,7.6
2022-10-19T00:55:00.477Z,2.5
2022-10-19T01:00:00.336Z,5.8
2022-10-19T01:05:00.401Z,4.7
2022-10-19T01:10:00.340Z,4.0
2022-10-19T01:15:00.310Z,10.4
2022-10-19T01:20:00.456Z,7.6
2022-10-19T01:25:00.393Z,11.9
2022-10-19T01:30:00.324Z,7.9
2022-10-19T01:35:00.381Z,6.1
2022-10-19T01:40:00.330Z,3.2
2022-10-19T01:45:00.325Z,2.9
2022-10-19T01:50:00.319Z,4.7
2022-10-19T01:55:00.303Z,4.3
2022-10-19T02:00:00.341Z,7.6
2022-10-19T02:05:00.297Z,7.2
2022-10-19T02:10:00.639Z,4.3
2022-10-19T02:15:00.328Z,11.2
2022-10-19T02:20:00.324Z,8.6
2022-10-19T02:25:00.334Z,5.8
2022-10-19T02:30:00.334Z,3.6
2022-10-19T02:35:00.314Z,16.6
2022-10-19T02:40:00.362Z,10.1
2022-10-19T02:45:00.352Z,9.0
2022-10-19T02:50:00.299Z,9.0
2022-10-19T02:55:00.307Z,7.6
2022-10-19T03:00:00.334Z,11.9
2022-10-19T03:05:00.304Z,6.5
2022-10-19T03:10:00.356Z,5.8
2022-10-19T03:15:00.284Z,5.8
2022-10-19T03:20:00.356Z,4.7
2022-10-19T03:25:00.290Z,6.8
2022-10-19T03:30:00.334Z,4.7
2022-10-19T03:35:00.361Z,9.4
2022-10-19T03:40:00.361Z,4.3
2022-10-19T03:45:00.322Z,3.6
2022-10-19T03:50:00.330Z,9.4
2022-10-19T03:55:00.303Z,1.4
2022-10-19T04:00:00.351Z,1.4
2022-10-19T04:05:00.303Z,4.0
2022-10-19T04:10:00.320Z,4.7
2022-10-19T04:15:00.313Z,4.3
2022-10-19T04:20:00.307Z,4.7
2022-10-19T04:25:00.319Z,6.1
2022-10-19T04:30:00.417Z,9.4
2022-10-19T04:35:00.288Z,2.9
2022-10-19T04:40:00.351Z,2.5
2022-10-19T04:45:00.381Z,8.6
2022-10-19T04:50:00.346Z,10.8
2022-10-19T04:55:00.336Z,9.0
2022-10-19T05:00:00.508Z,7.9
2022-10-19T05:05:00.273Z,5.0
2022-10-19T05:10:00.341Z,9.4
2022-10-19T05:15:00.321Z,7.6
2022-10-19T05:20:00.325Z,9.7
2022-10-19T05:25:00.370Z,10.8
2022-10-19T05:30:00.311Z,4.7
2022-10-19T05:35:00.294Z,13.7
2022-10-19T05:40:00.352Z,13.0
2022-10-19T05:45:00.298Z,6.5
2022-10-19T05:50:00.309Z,8.3
2022-10-19T05:55:00.327Z,8.3
2022-10-19T06:00:00.357Z,11.2
2022-10-19T06:05:00.283Z,6.8
2022-10-19T06:10:00.311Z,8.6
2022-10-19T06:15:00.328Z,5.8
2022-10-19T06:20:00.307Z,10.1
2022-10-19T06:25:00.335Z,13.0
2022-10-19T06:30:00.342Z,6.5
2022-10-19T06:35:00.324Z,4.7
2022-10-19T06:40:07.412Z,8.3
2022-10-19T06:45:00.305Z,9.7
2022-10-19T06:50:00.302Z,9.0
2022-10-19T06:55:00.322Z,14.8
2022-10-19T07:00:00.330Z,13.0
2022-10-19T07:05:07.394Z,6.5
2022-10-19T07:10:00.386Z,8.3
2022-10-19T07:15:00.350Z,6.1
2022-10-19T07:20:00.337Z,9.4
2022-10-19T07:25:00.302Z,5.4
2022-10-19T07:30:00.314Z,7.9
2022-10-19T07:35:00.284Z,7.2
2022-10-19T07:40:00.332Z,11.5
2022-10-19T07:45:00.320Z,5.0
2022-10-19T07:50:00.308Z,8.3
2022-10-19T07:55:00.354Z,5.8
2022-10-19T08:00:00.460Z,11.9
2022-10-19T08:05:11.380Z,13.0
2022-10-19T08:10:00.335Z,11.2
2022-10-19T08:15:00.301Z,12.2
2022-10-19T08:20:00.435Z,14.4
2022-10-19T08:25:00.406Z,10.8
2022-10-19T08:30:00.324Z,16.6
2022-10-19T08:35:00.303Z,7.2
2022-10-19T08:40:00.341Z,8.6
2022-10-19T08:45:00.534Z,9.4
2022-10-19T08:50:00.352Z,6.5
2022-10-19T08:55:00.328Z,3.6
2022-10-19T09:00:00.364Z,5.4
2022-10-19T09:05:00.316Z,11.5
2022-10-19T09:10:00.373Z,11.9
2022-10-19T09:15:00.308Z,6.5
2022-10-19T09:20:00.349Z,10.8
2022-10-19T09:25:00.349Z,10.8
2022-10-19T09:30:00.361Z,8.3
2022-10-19T09:35:00.328Z,7.2
2022-10-19T09:40:00.321Z,9.4
2022-10-19T09:45:00.320Z,6.5
2022-10-19T09:50:00.305Z,7.9
2022-10-19T09:55:00.331Z,11.2
2022-10-19T10:00:00.316Z,6.5
2022-10-19T10:05:00.333Z,7.2
2022-10-19T10:10:00.307Z,10.8
2022-10-19T10:15:00.309Z,16.9
2022-10-19T10:20:00.322Z,7.6
2022-10-19T10:25:00.339Z,13.0
2022-10-19T10:30:00.583Z,6.1
2022-10-19T10:35:02.071Z,8.6
2022-10-19T10:40:05.247Z,9.7
2022-10-19T10:45:00.322Z,9.7
2022-10-19T10:50:00.330Z,10.1
2022-10-19T10:55:00.319Z,13.3
2022-10-19T11:00:00.350Z,8.3
2022-10-19T11:05:00.302Z,11.2
2022-10-19T11:10:00.328Z,7.2
2022-10-19T11:15:00.325Z,8.3
2022-10-19T11:20:00.337Z,8.3
2022-10-19T11:25:00.490Z,10.8
2022-10-19T11:30:00.312Z,11.5
2022-10-19T11:35:00.319Z,11.5
2022-10-19T11:40:00.334Z,9.0
2022-10-19T11:45:00.355Z,10.1
2022-10-19T11:50:00.470Z,15.5
2022-10-19T11:55:00.291Z,3.6
2022-10-19T12:05:00.428Z,6.5
2022-10-19T12:10:00.309Z,6.1
2022-10-19T12:15:00.325Z,2.5
2022-10-19T12:20:00.361Z,7.9
2022-10-19T12:25:00.328Z,7.6
2022-10-19T12:30:00.346Z,8.6
2022-10-19T12:35:00.357Z,9.0
2022-10-19T12:40:00.415Z,9.7
2022-10-19T12:45:00.349Z,8.3
2022-10-19T12:50:00.327Z,13.3
2022-10-19T12:55:00.329Z,10.4
2022-10-19T13:00:00.345Z,10.4
2022-10-19T13:05:00.276Z,5.4
2022-10-19T13:10:00.348Z,6.5
2022-10-19T13:15:00.349Z,7.2
2022-10-19T13:20:00.345Z,4.0
2022-10-19T13:25:06.401Z,4.3
2022-10-19T13:30:00.361Z,2.5
2022-10-19T13:35:00.297Z,2.5
2022-10-19T13:40:00.341Z,3.6
2022-10-19T13:45:00.326Z,0.0
2022-10-19T13:50:00.355Z,4.0
2022-10-19T13:55:00.291Z,5.0
2022-10-19T14:00:00.504Z,3.2
2022-10-19T14:05:00.313Z,6.5
2022-10-19T14:10:00.302Z,6.5
2022-10-19T14:15:00.329Z,5.8
2022-10-19T14:20:00.341Z,6.5
2022-10-19T14:25:00.289Z,3.6
2022-10-19T14:30:00.350Z,3.6
2022-10-19T14:35:00.522Z,3.6
2022-10-19T14:40:00.356Z,4.0
2022-10-19T14:45:00.313Z,3.2
2022-10-19T14:50:00.352Z,2.5
2022-10-19T14:55:00.314Z,6.5
2022-10-19T15:00:00.450Z,6.1
2022-10-19T15:05:00.286Z,3.6
2022-10-19T15:10:00.358Z,6.5
2022-10-19T15:15:00.335Z,5.0
2022-10-19T15:20:01.192Z,5.8
2022-10-19T15:25:00.330Z,2.9
2022-10-19T15:30:00.580Z,4.7
2022-10-19T15:35:00.315Z,2.2
2022-10-19T15:40:00.628Z,0.0
2022-10-19T15:45:00.378Z,1.4
2022-10-19T15:50:00.361Z,0.0
2022-10-19T15:55:00.294Z,0.0
2022-10-19T16:00:00.599Z,4.0
2022-10-19T16:05:00.532Z,1.8
2022-10-19T16:10:00.338Z,0.0
2022-10-19T16:15:00.309Z,0.0
2022-10-19T16:20:00.376Z,0.0
2022-10-19T16:25:00.334Z,0.0
2022-10-19T16:30:00.342Z,0.0
2022-10-19T16:35:00.311Z,0.0
2022-10-19T16:40:00.288Z,0.0
2022-10-19T16:45:00.344Z,0.0
2022-10-19T16:50:00.369Z,0.0
2022-10-19T16:55:00.417Z,0.0
2022-10-19T17:00:00.352Z,0.0
2022-10-19T17:05:00.315Z,0.0
2022-10-19T17:10:00.535Z,0.0
2022-10-19T17:15:41.280Z,0.0
2022-10-19T17:20:00.344Z,0.0
2022-10-19T17:25:00.294Z,0.0
2022-10-19T17:30:00.384Z,0.0
2022-10-19T17:35:00.335Z,0.0
2022-10-19T17:40:00.316Z,0.0
2022-10-19T17:45:00.327Z,0.0
2022-10-19T17:50:00.371Z,0.0
2022-10-19T17:55:13.422Z,0.0
2022-10-19T18:00:00.336Z,0.0
2022-10-19T18:05:00.365Z,0.0
2022-10-19T18:10:00.345Z,0.0
2022-10-19T18:15:00.315Z,0.0
2022-10-19T18:20:00.310Z,0.0
2022-10-19T18:25:00.270Z,0.0
2022-10-19T18:30:00.296Z,0.0
2022-10-19T18:35:00.320Z,0.0
2022-10-19T18:40:00.340Z,0.0
2022-10-19T18:45:00.333Z,0.0
2022-10-19T18:50:00.326Z,0.0
2022-10-19T18:55:00.302Z,0.0
2022-10-19T19:00:00.355Z,0.0
2022-10-19T19:05:00.327Z,0.0
2022-10-19T19:10:00.303Z,0.0
2022-10-19T19:15:00.316Z,0.0
2022-10-19T19:20:00.320Z,0.0
2022-10-19T19:25:00.295Z,0.0
2022-10-19T19:30:00.343Z,1.4
2022-10-19T19:35:00.288Z,3.2
2022-10-19T19:40:00.367Z,3.2
2022-10-19T19:45:00.305Z,5.0
2022-10-19T19:50:00.315Z,2.2
2022-10-19T20:00:00.368Z,0.0
2022-10-19T20:05:00.336Z,0.0
2022-10-19T20:10:00.397Z,0.0
2022-10-19T20:15:00.361Z,0.0
2022-10-19T20:20:00.345Z,0.0
2022-10-19T20:25:00.298Z,0.0
2022-10-19T20:30:00.327Z,0.0
2022-10-19T20:35:00.324Z,0.0
2022-10-19T20:40:08.479Z,0.0
2022-10-19T20:45:00.339Z,0.0
2022-10-19T20:50:00.678Z,0.0
2022-10-19T20:55:00.300Z,0.0
2022-10-19T21:00:00.324Z,0.0
2022-10-19T21:05:00.309Z,0.0
2022-10-19T21:10:00.319Z,0.0
2022-10-19T21:15:00.380Z,0.0
2022-10-19T21:20:00.297Z,0.0
2022-10-19T21:25:00.470Z,0.0
2022-10-19T21:30:00.345Z,0.0
2022-10-19T21:35:00.290Z,0.0
2022-10-19T21:40:00.313Z,0.0
2022-10-19T21:45:29.709Z,0.0
2022-10-19T21:50:00.306Z,0.0
2022-10-19T21:55:00.298Z,0.0
2022-10-19T22:00:00.376Z,0.0
2022-10-19T22:05:00.271Z,0.0
2022-10-19T22:10:00.321Z,0.0
2022-10-19T22:15:00.347Z,0.0
2022-10-19T22:20:00.310Z,0.0
2022-10-19T22:25:00.318Z,0.0
2022-10-19T22:30:00.433Z,0.0
2022-10-19T22:35:00.316Z,0.0
2022-10-19T22:40:00.419Z,0.0
2022-10-19T22:45:00.349Z,0.0
2022-10-19T22:50:00.383Z,0.0
2022-10-19T22:55:00.339Z,0.0
2022-10-19T23:00:00.364Z,0.0
2022-10-19T23:05:00.364Z,0.0
2022-10-19T23:10:00.530Z,0.0
2022-10-19T23:15:00.337Z,0.0
2022-10-19T23:20:00.335Z,0.0
2022-10-19T23:25:00.340Z,0.0
2022-10-19T23:30:00.367Z,0.0
2022-10-19T23:35:00.360Z,0.0
2022-10-19T23:40:00.358Z,0.0
2022-10-19T23:45:00.357Z,0.0
2022-10-19T23:50:00.394Z,0.0
2022-10-19T23:55:00.287Z,0.0
